sensor_id;sensor_type;location;lat;lon;timestamp;pressure;altitude;pressure_sealevel;temperature;humidity
62952;BME280;52163;52.212;-1.002;2023-01-15T00:00:45;98681.38;;;3.01;83.75
62952;BME280;52163;52.212;-1.002;2023-01-15T00:03:13;98680.20;;;3.00;83.98
62952;BME280;52163;52.212;-1.002;2023-01-15T00:05:38;98683.30;;;2.98;84.03
62952;BME280;52163;52.212;-1.002;2023-01-15T00:08:04;98675.17;;;2.94;84.12
62952;BME280;52163;52.212;-1.002;2023-01-15T00:10:29;98671.92;;;2.89;84.50
62952;BME280;52163;52.212;-1.002;2023-01-15T00:12:55;98663.07;;;2.85;84.54
62952;BME280;52163;52.212;-1.002;2023-01-15T00:15:21;98658.49;;;2.83;84.69
62952;BME280;52163;52.212;-1.002;2023-01-15T00:17:46;98653.35;;;2.82;84.73
62952;BME280;52163;52.212;-1.002;2023-01-15T00:20:12;98649.95;;;2.80;85.18
62952;BME280;52163;52.212;-1.002;2023-01-15T00:22:37;98654.33;;;2.80;85.23
62952;BME280;52163;52.212;-1.002;2023-01-15T00:25:04;98651.52;;;2.78;85.19
62952;BME280;52163;52.212;-1.002;2023-01-15T00:27:48;98638.96;;;2.74;85.25
62952;BME280;52163;52.212;-1.002;2023-01-15T00:30:15;98635.80;;;2.72;85.23
62952;BME280;52163;52.212;-1.002;2023-01-15T00:32:42;98635.63;;;2.69;85.15
62952;BME280;52163;52.212;-1.002;2023-01-15T00:35:16;98633.92;;;2.65;85.44
62952;BME280;52163;52.212;-1.002;2023-01-15T00:37:42;98632.85;;;2.62;85.43
62952;BME280;52163;52.212;-1.002;2023-01-15T00:40:09;98631.14;;;2.61;85.44
62952;BME280;52163;52.212;-1.002;2023-01-15T00:42:34;98627.52;;;2.61;85.45
62952;BME280;52163;52.212;-1.002;2023-01-15T00:45:00;98621.60;;;2.61;85.51
62952;BME280;52163;52.212;-1.002;2023-01-15T00:47:32;98625.39;;;2.61;85.41
62952;BME280;52163;52.212;-1.002;2023-01-15T00:49:57;98628.20;;;2.61;85.32
62952;BME280;52163;52.212;-1.002;2023-01-15T00:52:23;98625.59;;;2.61;85.54
62952;BME280;52163;52.212;-1.002;2023-01-15T00:54:48;98624.46;;;2.59;85.52
62952;BME280;52163;52.212;-1.002;2023-01-15T00:57:14;98621.39;;;2.58;85.21
62952;BME280;52163;52.212;-1.002;2023-01-15T00:59:39;98621.99;;;2.57;85.15
62952;BME280;52163;52.212;-1.002;2023-01-15T01:02:05;98620.58;;;2.57;85.20
62952;BME280;52163;52.212;-1.002;2023-01-15T01:04:30;98618.65;;;2.57;84.96
62952;BME280;52163;52.212;-1.002;2023-01-15T01:06:55;98616.91;;;2.57;84.99
62952;BME280;52163;52.212;-1.002;2023-01-15T01:09:21;98617.48;;;2.56;84.85
62952;BME280;52163;52.212;-1.002;2023-01-15T01:11:48;98620.95;;;2.54;84.83
62952;BME280;52163;52.212;-1.002;2023-01-15T01:14:14;98623.17;;;2.52;84.68
62952;BME280;52163;52.212;-1.002;2023-01-15T01:16:40;98625.93;;;2.49;84.60
62952;BME280;52163;52.212;-1.002;2023-01-15T01:19:18;98626.27;;;2.46;84.81
62952;BME280;52163;52.212;-1.002;2023-01-15T01:21:44;98626.87;;;2.45;85.01
62952;BME280;52163;52.212;-1.002;2023-01-15T01:24:13;98621.45;;;2.45;84.61
62952;BME280;52163;52.212;-1.002;2023-01-15T01:26:38;98626.85;;;2.45;84.89
62952;BME280;52163;52.212;-1.002;2023-01-15T01:29:05;98628.74;;;2.45;84.66
62952;BME280;52163;52.212;-1.002;2023-01-15T01:31:30;98630.27;;;2.46;84.65
62952;BME280;52163;52.212;-1.002;2023-01-15T01:33:57;98634.52;;;2.45;84.65
62952;BME280;52163;52.212;-1.002;2023-01-15T01:36:33;98631.15;;;2.43;84.46
62952;BME280;52163;52.212;-1.002;2023-01-15T01:39:00;98634.60;;;2.41;83.97
62952;BME280;52163;52.212;-1.002;2023-01-15T01:41:26;98632.11;;;2.38;83.84
62952;BME280;52163;52.212;-1.002;2023-01-15T01:44:05;98632.19;;;2.37;83.91
62952;BME280;52163;52.212;-1.002;2023-01-15T01:46:33;98626.48;;;2.36;83.85
62952;BME280;52163;52.212;-1.002;2023-01-15T01:51:29;98628.25;;;2.36;83.60
62952;BME280;52163;52.212;-1.002;2023-01-15T01:53:59;98623.21;;;2.36;83.82
62952;BME280;52163;52.212;-1.002;2023-01-15T01:56:24;98623.27;;;2.35;83.53
62952;BME280;52163;52.212;-1.002;2023-01-15T01:58:51;98616.38;;;2.33;83.37
62952;BME280;52163;52.212;-1.002;2023-01-15T02:01:20;98623.94;;;2.31;83.14
62952;BME280;52163;52.212;-1.002;2023-01-15T02:03:47;98620.31;;;2.31;82.92
62952;BME280;52163;52.212;-1.002;2023-01-15T02:06:14;98622.35;;;2.32;83.01
62952;BME280;52163;52.212;-1.002;2023-01-15T02:08:40;98619.51;;;2.33;82.84
62952;BME280;52163;52.212;-1.002;2023-01-15T02:11:10;98618.77;;;2.34;82.81
62952;BME280;52163;52.212;-1.002;2023-01-15T02:13:42;98614.19;;;2.35;82.93
62952;BME280;52163;52.212;-1.002;2023-01-15T02:16:14;98612.29;;;2.35;82.81
62952;BME280;52163;52.212;-1.002;2023-01-15T02:18:51;98600.33;;;2.33;82.69
62952;BME280;52163;52.212;-1.002;2023-01-15T02:21:36;98603.59;;;2.31;82.63
62952;BME280;52163;52.212;-1.002;2023-01-15T02:24:08;98603.17;;;2.26;82.66
62952;BME280;52163;52.212;-1.002;2023-01-15T02:29:37;98597.31;;;2.19;82.74
62952;BME280;52163;52.212;-1.002;2023-01-15T02:32:10;98593.91;;;2.17;83.02
62952;BME280;52163;52.212;-1.002;2023-01-15T02:34:42;98594.77;;;2.17;83.27
62952;BME280;52163;52.212;-1.002;2023-01-15T02:37:12;98599.14;;;2.17;83.18
62952;BME280;52163;52.212;-1.002;2023-01-15T02:39:42;98594.19;;;2.18;83.34
62952;BME280;52163;52.212;-1.002;2023-01-15T02:42:10;98597.31;;;2.19;83.47
62952;BME280;52163;52.212;-1.002;2023-01-15T02:44:40;98595.88;;;2.20;83.24
62952;BME280;52163;52.212;-1.002;2023-01-15T02:47:08;98595.73;;;2.19;83.34
62952;BME280;52163;52.212;-1.002;2023-01-15T02:49:36;98597.77;;;2.20;83.68
62952;BME280;52163;52.212;-1.002;2023-01-15T02:52:13;98598.89;;;2.22;83.29
62952;BME280;52163;52.212;-1.002;2023-01-15T02:54:42;98598.11;;;2.26;83.49
62952;BME280;52163;52.212;-1.002;2023-01-15T02:57:11;98594.74;;;2.30;83.63
62952;BME280;52163;52.212;-1.002;2023-01-15T02:59:42;98593.52;;;2.33;83.22
62952;BME280;52163;52.212;-1.002;2023-01-15T03:02:14;98587.09;;;2.36;83.20
62952;BME280;52163;52.212;-1.002;2023-01-15T03:04:47;98583.04;;;2.37;83.14
62952;BME280;52163;52.212;-1.002;2023-01-15T03:07:34;98587.98;;;2.36;83.20
62952;BME280;52163;52.212;-1.002;2023-01-15T03:10:01;98583.74;;;2.34;83.06
62952;BME280;52163;52.212;-1.002;2023-01-15T03:12:36;98577.13;;;2.30;83.17
62952;BME280;52163;52.212;-1.002;2023-01-15T03:15:24;98571.65;;;2.29;83.24
62952;BME280;52163;52.212;-1.002;2023-01-15T03:18:12;98580.84;;;2.29;83.33
62952;BME280;52163;52.212;-1.002;2023-01-15T03:20:43;98579.66;;;2.35;83.65
62952;BME280;52163;52.212;-1.002;2023-01-15T03:23:15;98580.66;;;2.42;83.73
62952;BME280;52163;52.212;-1.002;2023-01-15T03:25:45;98573.49;;;2.49;83.69
62952;BME280;52163;52.212;-1.002;2023-01-15T03:28:13;98570.61;;;2.53;83.97
62952;BME280;52163;52.212;-1.002;2023-01-15T03:30:40;98574.54;;;2.57;83.86
62952;BME280;52163;52.212;-1.002;2023-01-15T03:33:06;98568.12;;;2.60;83.68
62952;BME280;52163;52.212;-1.002;2023-01-15T03:35:44;98571.38;;;2.61;83.60
62952;BME280;52163;52.212;-1.002;2023-01-15T03:38:11;98570.48;;;2.61;83.71
62952;BME280;52163;52.212;-1.002;2023-01-15T03:40:47;98566.33;;;2.64;83.60
62952;BME280;52163;52.212;-1.002;2023-01-15T03:43:14;98566.85;;;2.70;83.70
62952;BME280;52163;52.212;-1.002;2023-01-15T03:46:04;98561.07;;;2.77;84.16
62952;BME280;52163;52.212;-1.002;2023-01-15T03:48:36;98550.49;;;2.81;83.82
62952;BME280;52163;52.212;-1.002;2023-01-15T03:53:42;98535.11;;;2.87;83.56
62952;BME280;52163;52.212;-1.002;2023-01-15T04:01:38;98538.79;;;2.94;83.65
62952;BME280;52163;52.212;-1.002;2023-01-15T04:04:05;98528.60;;;2.95;83.36
62952;BME280;52163;52.212;-1.002;2023-01-15T04:06:34;98521.45;;;2.95;83.47
62952;BME280;52163;52.212;-1.002;2023-01-15T04:09:03;98518.64;;;2.95;83.58
62952;BME280;52163;52.212;-1.002;2023-01-15T04:11:30;98523.48;;;2.96;83.67
62952;BME280;52163;52.212;-1.002;2023-01-15T04:13:55;98523.92;;;2.97;83.76
62952;BME280;52163;52.212;-1.002;2023-01-15T04:16:29;98524.38;;;2.98;83.88
62952;BME280;52163;52.212;-1.002;2023-01-15T04:18:55;98529.02;;;2.99;84.00
62952;BME280;52163;52.212;-1.002;2023-01-15T04:21:21;98537.42;;;3.01;84.11
62952;BME280;52163;52.212;-1.002;2023-01-15T04:23:47;98543.05;;;3.04;84.39
62952;BME280;52163;52.212;-1.002;2023-01-15T04:26:13;98537.86;;;3.03;84.89
62952;BME280;52163;52.212;-1.002;2023-01-15T04:28:39;98538.02;;;3.00;85.54
62952;BME280;52163;52.212;-1.002;2023-01-15T04:31:05;98542.95;;;3.00;86.28
62952;BME280;52163;52.212;-1.002;2023-01-15T04:33:30;98534.23;;;3.00;86.73
62952;BME280;52163;52.212;-1.002;2023-01-15T04:36:00;98524.99;;;3.00;87.37
62952;BME280;52163;52.212;-1.002;2023-01-15T04:38:26;98518.61;;;3.01;87.73
62952;BME280;52163;52.212;-1.002;2023-01-15T04:40:51;98525.90;;;3.02;88.46
62952;BME280;52163;52.212;-1.002;2023-01-15T04:43:35;98528.86;;;3.02;88.58
62952;BME280;52163;52.212;-1.002;2023-01-15T04:46:21;98529.76;;;3.01;89.09
62952;BME280;52163;52.212;-1.002;2023-01-15T04:48:47;98521.64;;;3.00;89.47
62952;BME280;52163;52.212;-1.002;2023-01-15T04:51:12;98514.91;;;2.99;90.11
62952;BME280;52163;52.212;-1.002;2023-01-15T04:53:38;98508.89;;;3.00;90.63
62952;BME280;52163;52.212;-1.002;2023-01-15T04:56:04;98503.52;;;3.03;90.58
62952;BME280;52163;52.212;-1.002;2023-01-15T04:58:30;98504.79;;;3.05;90.68
62952;BME280;52163;52.212;-1.002;2023-01-15T05:00:56;98501.05;;;3.06;90.88
62952;BME280;52163;52.212;-1.002;2023-01-15T05:03:29;98496.08;;;3.04;90.93
62952;BME280;52163;52.212;-1.002;2023-01-15T05:05:55;98487.47;;;3.00;91.06
62952;BME280;52163;52.212;-1.002;2023-01-15T05:08:24;98484.02;;;2.94;90.85
62952;BME280;52163;52.212;-1.002;2023-01-15T05:10:50;98487.04;;;2.86;91.04
62952;BME280;52163;52.212;-1.002;2023-01-15T05:13:15;98487.05;;;2.84;90.93
62952;BME280;52163;52.212;-1.002;2023-01-15T05:15:40;98482.63;;;2.85;91.19
62952;BME280;52163;52.212;-1.002;2023-01-15T05:18:07;98474.42;;;2.87;91.33
62952;BME280;52163;52.212;-1.002;2023-01-15T05:20:36;98478.00;;;2.92;91.54
62952;BME280;52163;52.212;-1.002;2023-01-15T05:23:01;98474.20;;;2.97;91.85
62952;BME280;52163;52.212;-1.002;2023-01-15T05:25:27;98474.33;;;3.01;91.79
62952;BME280;52163;52.212;-1.002;2023-01-15T05:27:52;98472.40;;;3.04;91.62
62952;BME280;52163;52.212;-1.002;2023-01-15T05:30:17;98474.61;;;3.04;91.60
62952;BME280;52163;52.212;-1.002;2023-01-15T05:32:43;98470.55;;;3.03;91.66
62952;BME280;52163;52.212;-1.002;2023-01-15T05:35:09;98471.25;;;3.02;91.90
62952;BME280;52163;52.212;-1.002;2023-01-15T05:37:34;98467.52;;;3.03;91.81
62952;BME280;52163;52.212;-1.002;2023-01-15T05:39:59;98469.04;;;3.04;92.13
62952;BME280;52163;52.212;-1.002;2023-01-15T05:42:25;98469.06;;;3.07;92.28
62952;BME280;52163;52.212;-1.002;2023-01-15T05:44:50;98466.66;;;3.09;92.73
62952;BME280;52163;52.212;-1.002;2023-01-15T05:47:15;98463.08;;;3.11;92.66
62952;BME280;52163;52.212;-1.002;2023-01-15T05:49:41;98459.88;;;3.11;92.67
62952;BME280;52163;52.212;-1.002;2023-01-15T05:52:06;98457.58;;;3.12;92.83
62952;BME280;52163;52.212;-1.002;2023-01-15T05:54:34;98451.67;;;3.12;92.90
62952;BME280;52163;52.212;-1.002;2023-01-15T05:57:00;98442.31;;;3.11;93.18
62952;BME280;52163;52.212;-1.002;2023-01-15T05:59:27;98448.42;;;3.10;93.24
62952;BME280;52163;52.212;-1.002;2023-01-15T06:01:54;98446.45;;;3.11;93.36
62952;BME280;52163;52.212;-1.002;2023-01-15T06:04:20;98446.23;;;3.15;93.64
62952;BME280;52163;52.212;-1.002;2023-01-15T06:06:47;98445.98;;;3.19;93.97
62952;BME280;52163;52.212;-1.002;2023-01-15T06:09:13;98445.02;;;3.21;93.91
62952;BME280;52163;52.212;-1.002;2023-01-15T06:11:39;98437.16;;;3.21;93.97
62952;BME280;52163;52.212;-1.002;2023-01-15T06:14:05;98438.27;;;3.17;94.02
62952;BME280;52163;52.212;-1.002;2023-01-15T06:16:31;98444.95;;;3.13;94.14
62952;BME280;52163;52.212;-1.002;2023-01-15T06:19:04;98442.59;;;3.12;94.32
62952;BME280;52163;52.212;-1.002;2023-01-15T06:21:32;98443.90;;;3.13;94.91
62952;BME280;52163;52.212;-1.002;2023-01-15T06:23:57;98440.30;;;3.18;95.13
62952;BME280;52163;52.212;-1.002;2023-01-15T06:26:23;98439.39;;;3.24;94.78
62952;BME280;52163;52.212;-1.002;2023-01-15T06:28:49;98445.23;;;3.29;95.16
62952;BME280;52163;52.212;-1.002;2023-01-15T06:31:18;98442.95;;;3.34;95.19
62952;BME280;52163;52.212;-1.002;2023-01-15T06:33:44;98443.05;;;3.38;95.25
62952;BME280;52163;52.212;-1.002;2023-01-15T06:36:18;98437.42;;;3.42;95.10
62952;BME280;52163;52.212;-1.002;2023-01-15T06:38:47;98444.30;;;3.43;94.79
62952;BME280;52163;52.212;-1.002;2023-01-15T06:41:21;98444.83;;;3.46;94.92
62952;BME280;52163;52.212;-1.002;2023-01-15T06:44:10;98444.59;;;3.53;94.73
62952;BME280;52163;52.212;-1.002;2023-01-15T06:46:54;98452.11;;;3.60;94.60
62952;BME280;52163;52.212;-1.002;2023-01-15T06:49:38;98451.72;;;3.67;94.37
62952;BME280;52163;52.212;-1.002;2023-01-15T06:52:04;98450.82;;;3.70;94.50
62952;BME280;52163;52.212;-1.002;2023-01-15T06:54:30;98450.52;;;3.72;94.21
62952;BME280;52163;52.212;-1.002;2023-01-15T06:56:55;98449.42;;;3.70;93.97
62952;BME280;52163;52.212;-1.002;2023-01-15T06:59:21;98449.45;;;3.67;93.93
62952;BME280;52163;52.212;-1.002;2023-01-15T07:01:46;98450.20;;;3.63;94.03
62952;BME280;52163;52.212;-1.002;2023-01-15T07:04:13;98450.80;;;3.59;93.73
62952;BME280;52163;52.212;-1.002;2023-01-15T07:06:39;98454.44;;;3.57;93.80
62952;BME280;52163;52.212;-1.002;2023-01-15T07:09:04;98454.70;;;3.55;94.29
62952;BME280;52163;52.212;-1.002;2023-01-15T07:11:30;98456.76;;;3.56;94.28
62952;BME280;52163;52.212;-1.002;2023-01-15T07:13:55;98463.13;;;3.57;94.73
62952;BME280;52163;52.212;-1.002;2023-01-15T07:16:34;98465.20;;;3.58;94.70
62952;BME280;52163;52.212;-1.002;2023-01-15T07:19:01;98465.91;;;3.55;94.55
62952;BME280;52163;52.212;-1.002;2023-01-15T07:21:26;98462.40;;;3.53;94.69
62952;BME280;52163;52.212;-1.002;2023-01-15T07:23:53;98471.06;;;3.51;95.09
62952;BME280;52163;52.212;-1.002;2023-01-15T07:26:18;98475.70;;;3.49;95.19
62952;BME280;52163;52.212;-1.002;2023-01-15T07:28:43;98477.27;;;3.49;95.14
62952;BME280;52163;52.212;-1.002;2023-01-15T07:31:09;98484.88;;;3.50;95.34
62952;BME280;52163;52.212;-1.002;2023-01-15T07:33:34;98493.19;;;3.52;95.72
62952;BME280;52163;52.212;-1.002;2023-01-15T07:36:04;98493.39;;;3.54;95.78
62952;BME280;52163;52.212;-1.002;2023-01-15T07:38:29;98493.54;;;3.57;95.69
62952;BME280;52163;52.212;-1.002;2023-01-15T07:40:56;98496.67;;;3.57;95.77
62952;BME280;52163;52.212;-1.002;2023-01-15T07:43:40;98493.34;;;3.55;95.69
62952;BME280;52163;52.212;-1.002;2023-01-15T07:46:24;98492.02;;;3.51;95.67
62952;BME280;52163;52.212;-1.002;2023-01-15T07:49:09;98498.02;;;3.47;95.54
62952;BME280;52163;52.212;-1.002;2023-01-15T07:51:53;98494.08;;;3.46;95.72
62952;BME280;52163;52.212;-1.002;2023-01-15T07:54:19;98495.39;;;3.47;95.63
62952;BME280;52163;52.212;-1.002;2023-01-15T07:56:44;98495.13;;;3.51;95.77
62952;BME280;52163;52.212;-1.002;2023-01-15T07:59:10;98493.96;;;3.56;95.56
62952;BME280;52163;52.212;-1.002;2023-01-15T08:01:35;98493.06;;;3.59;95.37
62952;BME280;52163;52.212;-1.002;2023-01-15T08:04:00;98480.48;;;3.59;94.79
62952;BME280;52163;52.212;-1.002;2023-01-15T08:06:26;98491.89;;;3.58;94.60
62952;BME280;52163;52.212;-1.002;2023-01-15T08:08:51;98494.55;;;3.57;94.19
62952;BME280;52163;52.212;-1.002;2023-01-15T08:11:16;98490.93;;;3.57;93.63
62952;BME280;52163;52.212;-1.002;2023-01-15T08:14:00;98497.50;;;3.58;93.56
62952;BME280;52163;52.212;-1.002;2023-01-15T08:16:44;98496.86;;;3.60;93.18
62952;BME280;52163;52.212;-1.002;2023-01-15T08:19:09;98495.95;;;3.60;93.38
62952;BME280;52163;52.212;-1.002;2023-01-15T08:21:35;98498.46;;;3.62;93.23
62952;BME280;52163;52.212;-1.002;2023-01-15T08:24:00;98507.27;;;3.66;93.11
62952;BME280;52163;52.212;-1.002;2023-01-15T08:26:25;98508.59;;;3.70;92.86
62952;BME280;52163;52.212;-1.002;2023-01-15T08:28:51;98509.44;;;3.73;92.65
62952;BME280;52163;52.212;-1.002;2023-01-15T08:31:16;98510.77;;;3.74;92.12
62952;BME280;52163;52.212;-1.002;2023-01-15T08:33:42;98509.29;;;3.76;92.10
62952;BME280;52163;52.212;-1.002;2023-01-15T08:36:08;98507.45;;;3.77;91.90
62952;BME280;52163;52.212;-1.002;2023-01-15T08:38:33;98510.67;;;3.79;91.56
62952;BME280;52163;52.212;-1.002;2023-01-15T08:40:58;98515.15;;;3.80;91.41
62952;BME280;52163;52.212;-1.002;2023-01-15T08:43:28;98519.35;;;3.80;91.74
62952;BME280;52163;52.212;-1.002;2023-01-15T08:45:58;98523.90;;;3.80;91.50
62952;BME280;52163;52.212;-1.002;2023-01-15T08:48:25;98530.37;;;3.80;91.29
62952;BME280;52163;52.212;-1.002;2023-01-15T08:50:52;98527.37;;;3.80;91.13
62952;BME280;52163;52.212;-1.002;2023-01-15T08:53:18;98537.09;;;3.84;91.32
62952;BME280;52163;52.212;-1.002;2023-01-15T08:55:45;98537.94;;;3.89;90.90
62952;BME280;52163;52.212;-1.002;2023-01-15T08:58:11;98539.78;;;3.96;90.83
62952;BME280;52163;52.212;-1.002;2023-01-15T09:00:36;98545.84;;;4.02;90.41
62952;BME280;52163;52.212;-1.002;2023-01-15T09:03:02;98548.02;;;4.07;90.28
62952;BME280;52163;52.212;-1.002;2023-01-15T09:05:27;98549.67;;;4.11;89.93
62952;BME280;52163;52.212;-1.002;2023-01-15T09:07:53;98550.52;;;4.15;89.76
62952;BME280;52163;52.212;-1.002;2023-01-15T09:10:19;98552.31;;;4.19;89.43
62952;BME280;52163;52.212;-1.002;2023-01-15T09:12:45;98552.43;;;4.25;89.08
62952;BME280;52163;52.212;-1.002;2023-01-15T09:15:12;98551.79;;;4.32;89.05
62952;BME280;52163;52.212;-1.002;2023-01-15T09:17:37;98556.86;;;4.38;88.68
62952;BME280;52163;52.212;-1.002;2023-01-15T09:20:10;98561.61;;;4.43;88.49
62952;BME280;52163;52.212;-1.002;2023-01-15T09:22:35;98559.23;;;4.47;88.22
62952;BME280;52163;52.212;-1.002;2023-01-15T09:25:01;98560.33;;;4.52;88.06
62952;BME280;52163;52.212;-1.002;2023-01-15T09:27:27;98565.77;;;4.54;87.67
62952;BME280;52163;52.212;-1.002;2023-01-15T09:29:53;98562.98;;;4.56;87.63
62952;BME280;52163;52.212;-1.002;2023-01-15T09:32:19;98569.13;;;4.59;87.72
62952;BME280;52163;52.212;-1.002;2023-01-15T09:34:44;98569.65;;;4.61;87.32
62952;BME280;52163;52.212;-1.002;2023-01-15T09:37:10;98576.20;;;4.66;87.10
62952;BME280;52163;52.212;-1.002;2023-01-15T09:39:38;98580.30;;;4.70;86.94
62952;BME280;52163;52.212;-1.002;2023-01-15T09:45:12;98592.77;;;4.79;86.65
62952;BME280;52163;52.212;-1.002;2023-01-15T09:47:53;98600.45;;;4.85;86.37
62952;BME280;52163;52.212;-1.002;2023-01-15T09:50:48;98598.13;;;4.88;85.97
62952;BME280;52163;52.212;-1.002;2023-01-15T09:53:43;98606.27;;;4.95;85.64
62952;BME280;52163;52.212;-1.002;2023-01-15T09:56:19;98606.77;;;5.01;85.41
62952;BME280;52163;52.212;-1.002;2023-01-15T09:58:45;98607.54;;;5.04;85.05
62952;BME280;52163;52.212;-1.002;2023-01-15T10:01:15;98610.84;;;5.08;84.67
62952;BME280;52163;52.212;-1.002;2023-01-15T10:04:10;98612.05;;;5.10;84.23
62952;BME280;52163;52.212;-1.002;2023-01-15T10:06:44;98614.46;;;5.14;84.33
62952;BME280;52163;52.212;-1.002;2023-01-15T10:09:19;98620.84;;;5.15;84.14
62952;BME280;52163;52.212;-1.002;2023-01-15T10:11:51;98629.03;;;5.16;83.74
62952;BME280;52163;52.212;-1.002;2023-01-15T10:14:49;98631.54;;;5.17;83.63
62952;BME280;52163;52.212;-1.002;2023-01-15T10:17:24;98640.09;;;5.20;82.98
62952;BME280;52163;52.212;-1.002;2023-01-15T10:19:52;98640.48;;;5.25;82.98
62952;BME280;52163;52.212;-1.002;2023-01-15T10:22:30;98641.56;;;5.30;82.98
62952;BME280;52163;52.212;-1.002;2023-01-15T10:25:01;98645.98;;;5.37;82.59
62952;BME280;52163;52.212;-1.002;2023-01-15T10:27:29;98647.73;;;5.44;82.49
62952;BME280;52163;52.212;-1.002;2023-01-15T10:30:17;98655.11;;;5.52;82.27
62952;BME280;52163;52.212;-1.002;2023-01-15T10:32:46;98659.23;;;5.61;82.14
62952;BME280;52163;52.212;-1.002;2023-01-15T10:38:55;98662.25;;;5.81;81.72
62952;BME280;52163;52.212;-1.002;2023-01-15T10:41:32;98662.34;;;5.90;81.40
62952;BME280;52163;52.212;-1.002;2023-01-15T10:44:10;98662.80;;;5.95;81.06
62952;BME280;52163;52.212;-1.002;2023-01-15T10:46:39;98667.33;;;5.99;80.63
62952;BME280;52163;52.212;-1.002;2023-01-15T10:49:16;98661.05;;;6.01;80.54
62952;BME280;52163;52.212;-1.002;2023-01-15T10:51:45;98664.63;;;6.02;80.54
62952;BME280;52163;52.212;-1.002;2023-01-15T10:56:57;98657.73;;;6.04;80.30
62952;BME280;52163;52.212;-1.002;2023-01-15T10:59:32;98656.73;;;6.05;80.23
62952;BME280;52163;52.212;-1.002;2023-01-15T11:02:01;98655.23;;;6.06;79.93
62952;BME280;52163;52.212;-1.002;2023-01-15T11:04:30;98655.09;;;6.06;80.03
62952;BME280;52163;52.212;-1.002;2023-01-15T11:06:57;98654.31;;;6.05;79.76
62952;BME280;52163;52.212;-1.002;2023-01-15T11:09:25;98658.23;;;6.04;79.71
62952;BME280;52163;52.212;-1.002;2023-01-15T11:12:19;98660.71;;;6.03;79.53
62952;BME280;52163;52.212;-1.002;2023-01-15T11:14:48;98665.20;;;6.04;79.36
62952;BME280;52163;52.212;-1.002;2023-01-15T11:17:36;98661.35;;;6.01;79.06
62952;BME280;52163;52.212;-1.002;2023-01-15T11:20:28;98656.52;;;6.00;79.10
62952;BME280;52163;52.212;-1.002;2023-01-15T11:22:55;98658.52;;;5.96;79.16
62952;BME280;52163;52.212;-1.002;2023-01-15T11:25:27;98666.85;;;5.93;79.09
62952;BME280;52163;52.212;-1.002;2023-01-15T11:27:54;98668.27;;;5.88;79.19
62952;BME280;52163;52.212;-1.002;2023-01-15T11:30:38;98667.74;;;5.82;78.99
62952;BME280;52163;52.212;-1.002;2023-01-15T11:33:19;98664.95;;;5.77;79.03
62952;BME280;52163;52.212;-1.002;2023-01-15T11:35:50;98667.60;;;5.74;79.35
62952;BME280;52163;52.212;-1.002;2023-01-15T11:38:16;98669.27;;;5.73;79.42
62952;BME280;52163;52.212;-1.002;2023-01-15T11:40:59;98675.05;;;5.70;79.44
62952;BME280;52163;52.212;-1.002;2023-01-15T11:43:29;98683.23;;;5.66;79.68
62952;BME280;52163;52.212;-1.002;2023-01-15T11:46:29;98690.61;;;5.63;79.78
62952;BME280;52163;52.212;-1.002;2023-01-15T11:49:19;98699.72;;;5.61;79.52
62952;BME280;52163;52.212;-1.002;2023-01-15T11:52:18;98708.34;;;5.60;79.90
62952;BME280;52163;52.212;-1.002;2023-01-15T11:54:48;98708.40;;;5.59;80.16
62952;BME280;52163;52.212;-1.002;2023-01-15T11:57:30;98712.39;;;5.62;80.22
62952;BME280;52163;52.212;-1.002;2023-01-15T11:59:57;98712.01;;;5.65;80.08
62952;BME280;52163;52.212;-1.002;2023-01-15T12:02:33;98708.98;;;5.69;80.05
62952;BME280;52163;52.212;-1.002;2023-01-15T12:05:05;98705.71;;;5.73;79.61
62952;BME280;52163;52.212;-1.002;2023-01-15T12:07:38;98703.66;;;5.75;79.48
62952;BME280;52163;52.212;-1.002;2023-01-15T12:10:28;98702.16;;;5.73;79.34
62952;BME280;52163;52.212;-1.002;2023-01-15T12:13:43;98696.23;;;5.71;79.52
62952;BME280;52163;52.212;-1.002;2023-01-15T12:22:12;98688.05;;;5.65;79.77
62952;BME280;52163;52.212;-1.002;2023-01-15T12:30:43;98672.02;;;5.71;79.45
62952;BME280;52163;52.212;-1.002;2023-01-15T12:33:20;98674.11;;;5.74;79.24
62952;BME280;52163;52.212;-1.002;2023-01-15T12:36:02;98677.06;;;5.74;79.14
62952;BME280;52163;52.212;-1.002;2023-01-15T12:41:27;98677.46;;;5.73;79.00
62952;BME280;52163;52.212;-1.002;2023-01-15T12:44:18;98681.13;;;5.71;78.78
62952;BME280;52163;52.212;-1.002;2023-01-15T12:47:09;98680.54;;;5.70;79.06
62952;BME280;52163;52.212;-1.002;2023-01-15T12:49:42;98677.64;;;5.68;79.02
62952;BME280;52163;52.212;-1.002;2023-01-15T12:52:14;98673.05;;;5.66;79.12
62952;BME280;52163;52.212;-1.002;2023-01-15T12:55:18;98675.55;;;5.63;78.99
62952;BME280;52163;52.212;-1.002;2023-01-15T12:57:48;98673.81;;;5.63;78.99
62952;BME280;52163;52.212;-1.002;2023-01-15T13:00:26;98671.40;;;5.62;79.36
62952;BME280;52163;52.212;-1.002;2023-01-15T13:05:57;98662.88;;;5.64;79.12
62952;BME280;52163;52.212;-1.002;2023-01-15T13:08:57;98658.30;;;5.62;78.59
62952;BME280;52163;52.212;-1.002;2023-01-15T13:11:25;98654.13;;;5.59;78.66
62952;BME280;52163;52.212;-1.002;2023-01-15T13:13:51;98653.84;;;5.55;78.67
62952;BME280;52163;52.212;-1.002;2023-01-15T13:16:31;98654.69;;;5.50;78.33
62952;BME280;52163;52.212;-1.002;2023-01-15T13:21:28;98657.52;;;5.45;78.36
62952;BME280;52163;52.212;-1.002;2023-01-15T13:31:41;98675.70;;;5.43;78.27
62952;BME280;52163;52.212;-1.002;2023-01-15T13:40:22;98667.29;;;5.40;78.22
62952;BME280;52163;52.212;-1.002;2023-01-15T13:42:50;98664.73;;;5.39;78.15
62952;BME280;52163;52.212;-1.002;2023-01-15T13:45:49;98660.29;;;5.38;78.30
62952;BME280;52163;52.212;-1.002;2023-01-15T13:48:42;98657.20;;;5.37;78.21
62952;BME280;52163;52.212;-1.002;2023-01-15T13:53:49;98648.54;;;5.41;78.32
62952;BME280;52163;52.212;-1.002;2023-01-15T13:56:28;98643.48;;;5.43;78.28
62952;BME280;52163;52.212;-1.002;2023-01-15T13:59:05;98645.17;;;5.46;77.91
62952;BME280;52163;52.212;-1.002;2023-01-15T14:01:50;98644.98;;;5.49;77.94
62952;BME280;52163;52.212;-1.002;2023-01-15T14:04:15;98641.38;;;5.50;77.82
62952;BME280;52163;52.212;-1.002;2023-01-15T14:06:41;98638.77;;;5.50;77.65
62952;BME280;52163;52.212;-1.002;2023-01-15T14:09:32;98637.69;;;5.50;77.02
62952;BME280;52163;52.212;-1.002;2023-01-15T14:12:20;98635.21;;;5.51;76.99
62952;BME280;52163;52.212;-1.002;2023-01-15T14:15:20;98631.60;;;5.52;76.98
62952;BME280;52163;52.212;-1.002;2023-01-15T14:20:49;98627.13;;;5.54;76.91
62952;BME280;52163;52.212;-1.002;2023-01-15T14:26:34;98621.19;;;5.51;76.47